ΕΜΥ, Εθνική Μετεωρολογική Υπηρεσία - Δελτία Καιρού, Προγνώσεις

ΑΕΡΟΝΑΥΤΙΛΙΑ

GREEK AIRPORTS CODES

LGPL 091700Z AUTO 31017KT //// // ////// 25/20 Q1006 RE//=

EUROPEAN AIRPORTS CODES

LFPO 091730Z AUTO 04010KT 010V070 CAVOK 30/10 Q1022 NOSIG=